Time;durP1;ratioP1;P1;durP2;ratioP2;P2;SDS_P1;SDS_P2;PMS_P1;PMS_P2;Temp;Humidity;BMP_temperature;BMP_pressure;BME280_temperature;BME280_humidity;BME280_pressure;Samples;Min_cycle;Max_cycle;Signal;HPM_P1;HPM_P2
2023/09/02 00:01:31;;;;;;;19.15;17.17;;;14.10;99.90;;;;;;7370783;19;20386;-75
2023/09/02 00:03:57;;;;;;;18.13;16.40;;;14.10;99.90;;;;;;7374210;19;20322;-69
2023/09/02 00:06:23;;;;;;;19.02;17.27;;;14.10;99.90;;;;;;7371237;19;20482;-69
2023/09/02 00:08:50;;;;;;;19.55;17.48;;;14.00;99.90;;;;;;7373336;19;20948;-75
2023/09/02 00:11:16;;;;;;;18.88;17.15;;;14.00;99.90;;;;;;7375413;19;20377;-75
2023/09/02 00:13:43;;;;;;;20.02;17.85;;;14.00;99.90;;;;;;7378091;19;20041;-75
2023/09/02 00:16:09;;;;;;;18.98;17.15;;;14.00;99.90;;;;;;7373102;19;20516;-75
2023/09/02 00:18:36;;;;;;;18.15;16.35;;;14.00;99.90;;;;;;7363800;19;20031;-74
2023/09/02 00:21:22;;;;;;;19.70;17.80;;;13.90;99.90;;;;;;7363421;19;20015;-69
2023/09/02 00:23:49;;;;;;;18.52;16.70;;;13.90;99.90;;;;;;7370249;19;20493;-69
2023/09/02 00:26:15;;;;;;;21.80;19.65;;;14.00;99.90;;;;;;7371086;19;20482;-69
2023/09/02 00:28:46;;;;;;;19.33;17.58;;;13.90;99.90;;;;;;7372163;19;20383;-68
2023/09/02 00:31:12;;;;;;;17.52;15.93;;;13.90;99.90;;;;;;7370573;19;20027;-71
2023/09/02 00:33:40;;;;;;;15.93;14.23;;;13.90;99.90;;;;;;7364519;19;20414;-69
2023/09/02 00:36:06;;;;;;;15.80;14.30;;;13.80;99.90;;;;;;7371299;19;20078;-70
2023/09/02 00:38:35;;;;;;;16.15;14.65;;;13.80;99.90;;;;;;7362133;19;20481;-70
2023/09/02 00:41:05;;;;;;;18.98;17.15;;;13.80;99.90;;;;;;7367302;19;20029;-69
2023/09/02 00:43:32;;;;;;;18.30;16.60;;;13.80;99.90;;;;;;7370615;19;20019;-69
2023/09/02 00:45:59;;;;;;;18.05;16.42;;;13.90;99.90;;;;;;7368646;19;20063;-70
2023/09/02 00:48:26;;;;;;;17.35;15.65;;;13.90;99.90;;;;;;7371713;19;20018;-75
2023/09/02 00:50:53;;;;;;;16.65;14.90;;;13.90;99.90;;;;;;7368527;19;20018;-69
2023/09/02 00:53:20;;;;;;;17.95;16.25;;;13.90;99.90;;;;;;7370007;19;20424;-70
2023/09/02 00:55:48;;;;;;;18.65;16.90;;;13.90;99.90;;;;;;7367306;19;20106;-69
2023/09/02 00:58:14;;;;;;;18.42;16.63;;;14.00;99.90;;;;;;7362390;19;20099;-68
2023/09/02 01:01:03;;;;;;;18.63;16.75;;;14.00;99.90;;;;;;7371464;19;20561;-68
2023/09/02 01:03:30;;;;;;;17.60;15.82;;;14.00;99.90;;;;;;7367136;19;20389;-69
2023/09/02 01:05:57;;;;;;;20.77;18.60;;;14.10;99.90;;;;;;7373366;19;20011;-75
2023/09/02 01:08:24;;;;;;;19.83;17.85;;;14.10;99.90;;;;;;7368054;19;20069;-74
2023/09/02 01:11:10;;;;;;;19.58;17.58;;;14.10;99.90;;;;;;7370011;19;20561;-75
2023/09/02 01:13:36;;;;;;;19.40;17.55;;;14.10;99.90;;;;;;7373517;19;20421;-74
2023/09/02 01:16:23;;;;;;;19.58;17.65;;;14.20;99.90;;;;;;7370165;19;20481;-75
2023/09/02 01:18:49;;;;;;;22.15;20.05;;;14.20;99.90;;;;;;7372435;19;20488;-74
2023/09/02 01:21:34;;;;;;;23.95;21.50;;;14.20;99.90;;;;;;7370485;19;20010;-75
2023/09/02 01:24:15;;;;;;;23.15;21.02;;;14.20;99.90;;;;;;7371879;19;20025;-75
2023/09/02 01:27:06;;;;;;;23.88;21.48;;;14.20;99.90;;;;;;7372507;19;20017;-74
2023/09/02 01:29:36;;;;;;;24.42;21.92;;;14.20;99.90;;;;;;7367973;19;20155;-75
2023/09/02 01:32:07;;;;;;;23.45;21.10;;;14.20;99.90;;;;;;7373189;19;20010;-74
2023/09/02 01:34:35;;;;;;;24.00;21.70;;;14.20;99.90;;;;;;7369478;19;20518;-74
2023/09/02 01:37:24;;;;;;;25.00;22.38;;;14.10;99.90;;;;;;7370456;19;20033;-75
2023/09/02 01:39:54;;;;;;;24.05;21.48;;;14.20;99.90;;;;;;7365033;19;20022;-74
2023/09/02 01:42:21;;;;;;;25.20;22.52;;;14.20;99.90;;;;;;7369292;19;20018;-74
2023/09/02 01:44:48;;;;;;;23.75;21.35;;;14.10;99.90;;;;;;7367335;19;20014;-74
2023/09/02 01:47:15;;;;;;;25.65;23.10;;;14.10;99.90;;;;;;7368642;19;20018;-75
2023/09/02 01:49:45;;;;;;;25.98;23.50;;;14.20;99.90;;;;;;7364845;19;20015;-74
2023/09/02 01:52:12;;;;;;;25.80;23.10;;;14.10;99.90;;;;;;7368957;19;20405;-73
2023/09/02 01:54:38;;;;;;;25.05;22.58;;;14.10;99.90;;;;;;7367758;19;20083;-73
2023/09/02 01:57:05;;;;;;;24.35;21.98;;;14.10;99.90;;;;;;7372552;19;20026;-73
2023/09/02 01:59:31;;;;;;;25.23;22.60;;;14.10;99.90;;;;;;7367607;19;20026;-74
2023/09/02 02:01:57;;;;;;;25.33;22.92;;;14.10;99.90;;;;;;7367047;19;20591;-68
2023/09/02 02:04:51;;;;;;;24.83;22.38;;;14.10;99.90;;;;;;7364906;19;20354;-69
2023/09/02 02:07:41;;;;;;;24.23;21.73;;;14.00;99.90;;;;;;7367945;19;20026;-69
2023/09/02 02:10:12;;;;;;;25.42;22.88;;;14.00;99.90;;;;;;7363576;19;20061;-69
2023/09/02 02:12:41;;;;;;;24.45;21.85;;;14.00;99.90;;;;;;7368653;19;20090;-69
2023/09/02 02:15:11;;;;;;;25.48;22.92;;;14.00;99.90;;;;;;7365311;19;20022;-69
2023/09/02 02:17:39;;;;;;;25.90;23.40;;;14.00;99.90;;;;;;7366048;19;20023;-69
2023/09/02 02:20:07;;;;;;;26.38;23.33;;;14.00;99.90;;;;;;7365038;19;20042;-68
2023/09/02 02:22:33;;;;;;;26.10;23.08;;;14.00;99.90;;;;;;7364769;19;20052;-69
2023/09/02 02:25:00;;;;;;;25.20;22.63;;;14.00;99.90;;;;;;7364829;19;20019;-69
2023/09/02 02:27:26;;;;;;;25.60;23.05;;;14.00;99.90;;;;;;7365872;19;20018;-68
2023/09/02 02:29:52;;;;;;;25.42;22.75;;;14.00;99.90;;;;;;7364989;19;20018;-69
2023/09/02 02:32:19;;;;;;;23.88;21.60;;;14.00;99.90;;;;;;7366346;19;20014;-68
2023/09/02 02:34:45;;;;;;;27.88;25.20;;;14.00;99.90;;;;;;7363725;19;20014;-69
2023/09/02 02:37:32;;;;;;;25.92;23.52;;;14.00;99.90;;;;;;7363318;19;20022;-68
2023/09/02 02:39:58;;;;;;;27.08;24.40;;;14.00;99.90;;;;;;7363621;19;20478;-68
2023/09/02 02:42:24;;;;;;;27.67;25.02;;;14.00;99.90;;;;;;7363873;19;20018;-75
2023/09/02 02:44:51;;;;;;;27.77;25.17;;;14.00;99.90;;;;;;7367946;19;20756;-76
2023/09/02 02:47:18;;;;;;;27.95;25.20;;;14.00;99.90;;;;;;7366865;19;20351;-76
2023/09/02 02:49:44;;;;;;;28.65;25.75;;;14.00;99.90;;;;;;7366189;19;20370;-75
2023/09/02 02:52:12;;;;;;;30.65;26.00;;;14.00;99.90;;;;;;7365499;19;20014;-76
2023/09/02 02:54:39;;;;;;;28.30;25.50;;;13.90;99.90;;;;;;7368392;19;21176;-75
2023/09/02 02:57:06;;;;;;;26.67;24.10;;;13.90;99.90;;;;;;7366799;19;20581;-76
2023/09/02 02:59:32;;;;;;;27.02;24.33;;;13.90;99.90;;;;;;7359821;19;20366;-76
2023/09/02 03:01:58;;;;;;;28.85;25.95;;;13.90;99.90;;;;;;7364848;19;20007;-74
2023/09/02 03:04:27;;;;;;;26.60;24.02;;;13.90;99.90;;;;;;7366431;19;20022;-75
2023/09/02 03:06:54;;;;;;;28.08;25.38;;;13.90;99.90;;;;;;7366374;19;20034;-75
2023/09/02 03:09:20;;;;;;;26.33;23.88;;;13.90;99.90;;;;;;7366148;19;20394;-78
2023/09/02 03:11:50;;;;;;;27.85;25.15;;;13.90;99.90;;;;;;7367550;19;20022;-77
2023/09/02 03:14:16;;;;;;;28.02;25.20;;;13.90;99.90;;;;;;7368850;19;20382;-76
2023/09/02 03:16:42;;;;;;;26.88;24.20;;;13.80;99.90;;;;;;7365750;19;20615;-75
2023/09/02 03:19:10;;;;;;;27.70;24.73;;;13.80;99.90;;;;;;7366014;19;20026;-75
2023/09/02 03:21:36;;;;;;;27.83;25.10;;;13.80;99.90;;;;;;7360883;19;20487;-76
2023/09/02 03:24:04;;;;;;;27.17;24.42;;;13.80;99.90;;;;;;7368420;19;20121;-76
2023/09/02 03:26:30;;;;;;;26.83;24.15;;;13.70;99.90;;;;;;7362940;19;20015;-76
2023/09/02 03:28:57;;;;;;;26.80;24.13;;;13.80;99.90;;;;;;7365447;19;20660;-75
2023/09/02 03:31:24;;;;;;;27.83;24.92;;;13.80;99.90;;;;;;7362704;19;20028;-75
2023/09/02 03:33:53;;;;;;;28.52;25.65;;;13.80;99.90;;;;;;7365737;19;20046;-75
2023/09/02 03:36:22;;;;;;;27.63;25.08;;;13.80;99.90;;;;;;7365891;19;20015;-74
2023/09/02 03:38:49;;;;;;;29.73;26.83;;;13.80;99.90;;;;;;7367116;19;20561;-75
2023/09/02 03:41:19;;;;;;;28.50;25.42;;;13.80;99.90;;;;;;7363199;19;20034;-74
2023/09/02 03:43:46;;;;;;;29.25;26.42;;;13.80;99.90;;;;;;7366288;19;20026;-75
2023/09/02 03:46:13;;;;;;;28.33;25.30;;;13.80;99.90;;;;;;7365908;19;20022;-75
2023/09/02 03:48:40;;;;;;;28.23;25.52;;;13.80;99.90;;;;;;7362268;19;20026;-75
2023/09/02 03:51:12;;;;;;;30.05;27.05;;;13.80;99.90;;;;;;7366743;19;20490;-74
2023/09/02 03:53:41;;;;;;;30.60;27.63;;;13.90;99.90;;;;;;7363892;19;20018;-75
2023/09/02 03:56:09;;;;;;;30.88;27.63;;;13.90;99.90;;;;;;7367952;19;20629;-75
2023/09/02 03:58:36;;;;;;;32.75;26.52;;;13.90;99.90;;;;;;7371194;19;20018;-74
2023/09/02 04:01:03;;;;;;;28.13;25.45;;;13.90;99.90;;;;;;7372705;19;20015;-74
2023/09/02 04:03:35;;;;;;;30.55;27.42;;;13.90;99.90;;;;;;7373738;19;20528;-74
2023/09/02 04:06:02;;;;;;;28.98;26.10;;;13.90;99.90;;;;;;7372847;19;20022;-74
2023/09/02 04:08:35;;;;;;;30.20;27.23;;;13.90;99.90;;;;;;7366736;19;20018;-74
2023/09/02 04:11:23;;;;;;;30.17;27.05;;;13.90;99.90;;;;;;7370800;19;20014;-74
2023/09/02 04:13:49;;;;;;;29.02;26.30;;;14.00;99.90;;;;;;7373030;19;20436;-75
2023/09/02 04:16:15;;;;;;;29.77;26.92;;;14.00;99.90;;;;;;7366906;19;20014;-75
2023/09/02 04:18:43;;;;;;;30.63;27.73;;;14.00;99.90;;;;;;7371180;19;20018;-74
2023/09/02 04:21:10;;;;;;;29.52;26.65;;;14.00;99.90;;;;;;7371011;19;20027;-74
2023/09/02 04:23:37;;;;;;;30.85;27.98;;;14.10;99.90;;;;;;7371907;19;20090;-74
2023/09/02 04:26:07;;;;;;;31.77;28.48;;;14.10;99.90;;;;;;7372813;19;20379;-74
2023/09/02 04:28:34;;;;;;;33.28;30.02;;;14.10;99.90;;;;;;7368967;19;20030;-74
2023/09/02 04:31:00;;;;;;;30.95;27.83;;;14.10;99.90;;;;;;7370490;19;20015;-70
2023/09/02 04:33:30;;;;;;;33.25;29.95;;;14.00;99.90;;;;;;7367970;19;20458;-69
2023/09/02 04:35:59;;;;;;;30.15;27.13;;;14.00;99.90;;;;;;7368051;19;20583;-69
2023/09/02 04:38:27;;;;;;;32.42;28.90;;;14.10;99.90;;;;;;7370775;19;20014;-73
2023/09/02 04:40:54;;;;;;;30.92;28.00;;;14.00;99.90;;;;;;7366053;19;20452;-71
2023/09/02 04:43:20;;;;;;;31.15;28.23;;;14.10;99.90;;;;;;7370251;19;20018;-74
2023/09/02 04:45:49;;;;;;;33.05;29.50;;;14.10;99.90;;;;;;7367945;19;20466;-74
2023/09/02 04:48:17;;;;;;;32.15;29.00;;;14.10;99.90;;;;;;7370953;19;20017;-75
2023/09/02 04:50:51;;;;;;;31.77;28.75;;;14.10;99.90;;;;;;7369155;19;20025;-75
2023/09/02 04:53:18;;;;;;;32.22;28.60;;;14.20;99.90;;;;;;7372006;19;20902;-75
2023/09/02 04:55:44;;;;;;;31.42;28.05;;;14.10;99.90;;;;;;7371214;19;20485;-75
2023/09/02 04:58:16;;;;;;;32.53;29.23;;;14.20;99.90;;;;;;7368892;19;20023;-74
2023/09/02 05:00:44;;;;;;;31.25;28.10;;;14.20;99.90;;;;;;7370137;19;20014;-74
2023/09/02 05:03:14;;;;;;;33.10;29.90;;;14.20;99.90;;;;;;7374573;19;20529;-74
2023/09/02 05:05:41;;;;;;;34.25;30.88;;;14.30;99.90;;;;;;7365092;19;20040;-74
2023/09/02 05:08:11;;;;;;;34.00;30.67;;;14.20;99.90;;;;;;7365322;19;20021;-74
2023/09/02 05:10:58;;;;;;;36.00;32.50;;;14.30;99.90;;;;;;7372406;19;20015;-67
2023/09/02 05:13:24;;;;;;;31.92;28.90;;;14.40;99.90;;;;;;7367645;19;20117;-72
2023/09/02 05:15:50;;;;;;;34.65;31.13;;;14.50;99.90;;;;;;7370796;19;20029;-76
2023/09/02 05:18:17;;;;;;;32.92;29.73;;;14.50;99.90;;;;;;7371520;19;20038;-77
2023/09/02 05:20:44;;;;;;;33.15;29.92;;;14.50;99.90;;;;;;7368408;19;20019;-72
2023/09/02 05:23:12;;;;;;;34.25;30.92;;;14.60;99.90;;;;;;7373728;19;20014;-71
2023/09/02 05:25:39;;;;;;;31.70;28.50;;;14.60;99.90;;;;;;7366748;19;20026;-71
2023/09/02 05:28:10;;;;;;;32.10;28.85;;;14.60;99.90;;;;;;7363958;19;20014;-72
2023/09/02 05:30:37;;;;;;;31.88;28.65;;;14.70;99.90;;;;;;7363403;19;20029;-71
2023/09/02 05:33:03;;;;;;;32.42;29.25;;;14.70;99.90;;;;;;7364371;19;20027;-71
2023/09/02 05:35:31;;;;;;;32.17;28.88;;;14.70;99.90;;;;;;7365712;19;20490;-72
2023/09/02 05:37:57;;;;;;;34.03;30.80;;;14.70;99.90;;;;;;7366157;19;20486;-72
2023/09/02 05:40:24;;;;;;;33.70;29.95;;;14.70;99.90;;;;;;7363323;19;20097;-72
2023/09/02 05:42:50;;;;;;;32.22;29.15;;;14.80;99.90;;;;;;7367657;19;20021;-72
2023/09/02 05:45:16;;;;;;;32.05;28.65;;;14.80;99.90;;;;;;7365249;19;20020;-72
2023/09/02 05:47:44;;;;;;;30.63;26.88;;;14.80;99.90;;;;;;7367337;19;20010;-72
2023/09/02 05:50:11;;;;;;;31.02;27.88;;;14.90;99.90;;;;;;7367334;19;20017;-72
2023/09/02 05:52:39;;;;;;;30.33;27.30;;;14.90;99.90;;;;;;7365594;19;20433;-72
2023/09/02 05:55:06;;;;;;;33.50;28.77;;;15.00;99.90;;;;;;7363361;19;20458;-72
2023/09/02 05:57:33;;;;;;;31.88;28.70;;;15.00;99.90;;;;;;7365106;19;20026;-71
2023/09/02 05:59:59;;;;;;;30.20;27.20;;;15.00;99.90;;;;;;7365710;19;20010;-72
2023/09/02 06:02:27;;;;;;;31.05;27.88;;;15.00;99.90;;;;;;7365138;19;20011;-72
2023/09/02 06:04:54;;;;;;;29.52;26.58;;;15.10;99.90;;;;;;7365684;19;20484;-72
2023/09/02 06:07:20;;;;;;;29.50;26.55;;;15.10;99.90;;;;;;7365908;19;20390;-76
2023/09/02 06:09:47;;;;;;;29.63;26.83;;;15.10;99.90;;;;;;7367800;19;20033;-72
2023/09/02 06:12:13;;;;;;;31.90;28.60;;;15.10;99.90;;;;;;7367243;19;20911;-72
2023/09/02 06:14:39;;;;;;;30.10;27.20;;;15.20;99.90;;;;;;7367201;19;20619;-72
2023/09/02 06:17:05;;;;;;;32.00;28.35;;;15.20;99.90;;;;;;7365581;19;20030;-72
2023/09/02 06:19:32;;;;;;;32.90;29.50;;;15.30;99.90;;;;;;7362729;19;20014;-72
2023/09/02 06:21:58;;;;;;;33.85;30.52;;;15.30;99.90;;;;;;7360544;19;20054;-72
2023/09/02 06:24:24;;;;;;;36.50;32.47;;;15.30;99.90;;;;;;7366098;19;20497;-68
2023/09/02 06:26:50;;;;;;;109.25;97.88;;;15.30;99.90;;;;;;7362938;19;20098;-72
2023/09/02 06:29:17;;;;;;;34.40;30.75;;;15.40;99.90;;;;;;7364878;19;20018;-72
2023/09/02 06:31:43;;;;;;;34.08;30.63;;;15.40;99.90;;;;;;7362242;19;20966;-71
2023/09/02 06:34:09;;;;;;;36.00;30.27;;;15.40;99.90;;;;;;7364846;19;20025;-72
2023/09/02 06:36:36;;;;;;;35.20;31.70;;;15.40;99.90;;;;;;7362638;19;20022;-72
2023/09/02 06:39:03;;;;;;;34.90;31.38;;;15.40;99.90;;;;;;7364692;19;20018;-73
2023/09/02 06:41:31;;;;;;;40.35;36.25;;;15.40;99.90;;;;;;7361931;19;20018;-71
2023/09/02 06:43:57;;;;;;;38.75;32.55;;;15.50;99.90;;;;;;7365417;19;20026;-72
2023/09/02 06:46:23;;;;;;;35.30;31.48;;;15.50;99.90;;;;;;7364804;19;20078;-70
2023/09/02 06:49:10;;;;;;;37.08;32.65;;;15.60;99.90;;;;;;7365817;19;20015;-74
2023/09/02 06:51:38;;;;;;;38.42;34.17;;;15.60;99.90;;;;;;7360079;19;20038;-73
2023/09/02 06:54:24;;;;;;;36.85;33.00;;;15.60;99.90;;;;;;7362491;19;20037;-73
2023/09/02 06:57:10;;;;;;;42.70;38.40;;;15.70;99.90;;;;;;7364101;19;20039;-73
2023/09/02 06:59:36;;;;;;;37.10;33.20;;;15.80;99.90;;;;;;7362446;19;20010;-74
2023/09/02 07:02:03;;;;;;;36.35;31.98;;;15.80;99.90;;;;;;7362929;19;20553;-73
2023/09/02 07:04:29;;;;;;;35.75;31.88;;;15.90;99.90;;;;;;7359732;19;20413;-73
2023/09/02 07:06:56;;;;;;;40.92;35.67;;;15.90;99.90;;;;;;7362661;19;20470;-73
2023/09/02 07:09:22;;;;;;;39.35;35.22;;;16.00;99.90;;;;;;7362221;19;20489;-73
2023/09/02 07:11:48;;;;;;;35.30;31.63;;;16.00;99.90;;;;;;7359273;19;20026;-72
2023/09/02 07:14:15;;;;;;;34.72;30.33;;;16.10;99.90;;;;;;7361858;19;20038;-64
2023/09/02 07:16:41;;;;;;;45.05;40.38;;;16.20;99.90;;;;;;7361210;19;20018;-76
2023/09/02 07:19:07;;;;;;;70.05;62.83;;;16.30;99.90;;;;;;7365495;19;20502;-73
2023/09/02 07:21:33;;;;;;;45.05;40.45;;;16.30;99.90;;;;;;7362225;19;20015;-72
2023/09/02 07:24:00;;;;;;;34.83;31.15;;;16.40;99.90;;;;;;7364917;19;20016;-74
2023/09/02 07:26:28;;;;;;;38.30;34.35;;;16.60;99.90;;;;;;7364327;19;20026;-75
2023/09/02 07:28:58;;;;;;;34.55;30.90;;;16.70;99.90;;;;;;7363202;19;20010;-76
2023/09/02 07:31:25;;;;;;;41.17;36.95;;;16.80;99.90;;;;;;7370085;19;20015;-74
2023/09/02 07:33:51;;;;;;;37.83;33.72;;;16.90;99.90;;;;;;7371691;19;20094;-79
2023/09/02 07:36:18;;;;;;;34.83;31.35;;;16.90;99.90;;;;;;7378017;19;20019;-73
2023/09/02 07:38:44;;;;;;;67.10;60.40;;;17.00;99.90;;;;;;7370966;19;20022;-74
2023/09/02 07:41:13;;;;;;;37.35;33.65;;;17.20;99.90;;;;;;7374322;19;20089;-73
2023/09/02 07:43:39;;;;;;;34.03;30.42;;;17.40;99.90;;;;;;7369267;19;20771;-73
2023/09/02 07:46:06;;;;;;;33.47;29.88;;;17.50;99.90;;;;;;7374043;19;21931;-76
2023/09/02 07:48:32;;;;;;;39.53;33.88;;;17.60;99.90;;;;;;7369466;19;20006;-74
2023/09/02 07:51:00;;;;;;;39.28;29.98;;;17.80;99.90;;;;;;7373306;19;20423;-69
2023/09/02 07:53:28;;;;;;;30.30;26.60;;;17.90;99.90;;;;;;7369681;19;20017;-66
2023/09/02 07:55:54;;;;;;;27.58;24.77;;;17.90;99.90;;;;;;7374063;19;20029;-73
2023/09/02 07:58:21;;;;;;;33.38;27.17;;;17.90;99.90;;;;;;7369875;19;20051;-74
2023/09/02 08:00:47;;;;;;;29.75;26.67;;;17.80;99.90;;;;;;7371641;19;20401;-65
2023/09/02 08:03:14;;;;;;;35.80;32.03;;;17.80;99.90;;;;;;7366974;19;20022;-75
2023/09/02 08:05:40;;;;;;;36.05;32.20;;;17.80;99.90;;;;;;7373910;19;20015;-70
2023/09/02 08:08:27;;;;;;;33.40;29.85;;;17.80;99.90;;;;;;7368730;19;20018;-69
2023/09/02 08:11:06;;;;;;;34.15;29.50;;;17.80;99.90;;;;;;7375757;19;20369;-65
2023/09/02 08:13:33;;;;;;;30.77;27.63;;;17.80;99.90;;;;;;7366525;19;20055;-65
2023/09/02 08:16:04;;;;;;;37.58;33.80;;;17.80;99.90;;;;;;7372748;19;20370;-65
2023/09/02 08:18:31;;;;;;;30.05;25.48;;;17.90;99.90;;;;;;7374170;19;20022;-65
2023/09/02 08:20:57;;;;;;;35.28;27.23;;;17.90;99.90;;;;;;7371722;19;20018;-65
2023/09/02 08:23:24;;;;;;;33.60;30.13;;;18.00;99.90;;;;;;7369704;19;20022;-66
2023/09/02 08:25:50;;;;;;;29.13;26.13;;;18.20;99.90;;;;;;7372639;19;20029;-65
2023/09/02 08:28:16;;;;;;;31.08;26.27;;;18.40;99.90;;;;;;7371721;19;20023;-65
2023/09/02 08:30:44;;;;;;;108.82;98.00;;;18.70;99.90;;;;;;7370291;19;20023;-63
2023/09/02 08:33:10;;;;;;;27.13;24.23;;;18.80;99.90;;;;;;7371608;19;20022;-64
2023/09/02 08:35:36;;;;;;;59.97;53.70;;;18.90;99.90;;;;;;7370673;19;20078;-65
2023/09/02 08:38:06;;;;;;;25.95;23.13;;;19.00;99.90;;;;;;7374456;19;20484;-65
2023/09/02 08:40:53;;;;;;;28.02;25.17;;;19.20;99.90;;;;;;7366334;19;20077;-65
2023/09/02 08:43:21;;;;;;;23.40;20.65;;;19.60;99.90;;;;;;7372329;19;20361;-62
2023/09/02 08:45:52;;;;;;;22.40;20.08;;;19.70;99.90;;;;;;7366459;19;20058;-62
2023/09/02 08:48:24;;;;;;;22.55;20.25;;;19.90;99.90;;;;;;7363719;19;20033;-60
2023/09/02 08:50:54;;;;;;;20.90;18.77;;;20.20;99.90;;;;;;7375095;19;20458;-61
2023/09/02 08:53:24;;;;;;;21.45;19.05;;;20.70;99.90;;;;;;7371711;19;20019;-61
2023/09/02 08:55:53;;;;;;;22.10;19.17;;;21.00;99.90;;;;;;7369110;19;20011;-62
2023/09/02 08:58:19;;;;;;;20.75;18.38;;;21.20;99.90;;;;;;7376121;19;20575;-62
2023/09/02 09:00:47;;;;;;;19.42;17.42;;;21.40;99.90;;;;;;7372312;19;20498;-62
2023/09/02 09:03:34;;;;;;;19.27;17.05;;;21.50;99.90;;;;;;7372885;19;20081;-61
2023/09/02 09:06:06;;;;;;;20.63;18.40;;;21.80;99.90;;;;;;7375096;19;20033;-61
2023/09/02 09:08:32;;;;;;;20.33;18.33;;;21.80;99.90;;;;;;7364316;19;20022;-60
2023/09/02 09:11:01;;;;;;;20.08;16.85;;;22.00;99.90;;;;;;7372827;19;20499;-60
2023/09/02 09:13:29;;;;;;;22.85;18.08;;;22.10;99.90;;;;;;7371772;19;20014;-60
2023/09/02 09:15:57;;;;;;;19.10;17.15;;;22.20;99.90;;;;;;7368393;19;20014;-61
2023/09/02 09:18:24;;;;;;;19.80;16.95;;;22.20;99.90;;;;;;7369749;19;20399;-63
2023/09/02 09:20:50;;;;;;;28.48;25.50;;;22.00;99.90;;;;;;7369970;19;20502;-67
2023/09/02 09:23:20;;;;;;;17.80;15.68;;;22.00;99.90;;;;;;7367009;19;20014;-65
2023/09/02 09:25:51;;;;;;;28.52;20.00;;;22.00;99.90;;;;;;7370084;19;20461;-65
2023/09/02 09:28:17;;;;;;;29.48;20.63;;;22.10;99.90;;;;;;7367091;19;20482;-64
2023/09/02 09:30:44;;;;;;;19.45;17.02;;;22.20;99.90;;;;;;7367930;19;20398;-64
2023/09/02 09:33:10;;;;;;;23.65;17.23;;;22.10;99.90;;;;;;7373833;19;20050;-65
2023/09/02 09:35:37;;;;;;;22.92;16.70;;;22.00;99.90;;;;;;7367059;19;20078;-72
2023/09/02 09:38:04;;;;;;;19.58;15.77;;;22.00;99.90;;;;;;7378786;19;20014;-69
2023/09/02 09:40:51;;;;;;;24.73;22.00;;;22.00;99.90;;;;;;7374930;19;20033;-70
2023/09/02 09:43:17;;;;;;;73.93;66.28;;;22.10;99.90;;;;;;7370675;19;20014;-70
2023/09/02 09:45:51;;;;;;;22.42;19.33;;;22.30;99.90;;;;;;7370322;19;20122;-68
2023/09/02 09:48:20;;;;;;;19.80;16.98;;;22.20;99.90;;;;;;7371017;19;20018;-69
2023/09/02 09:50:47;;;;;;;110.78;100.38;;;22.20;99.90;;;;;;7368370;19;20018;-70
2023/09/02 09:53:13;;;;;;;21.13;16.92;;;22.10;99.90;;;;;;7365828;19;20022;-67
2023/09/02 09:55:40;;;;;;;26.25;23.23;;;22.00;99.90;;;;;;7364703;19;20010;-68
2023/09/02 09:58:06;;;;;;;54.63;28.80;;;22.20;99.90;;;;;;7367598;19;20375;-68
2023/09/02 10:00:33;;;;;;;84.15;75.18;;;22.30;99.90;;;;;;7369682;19;20516;-68
2023/09/02 10:03:00;;;;;;;49.25;43.92;;;22.00;99.90;;;;;;7366478;19;20550;-67
2023/09/02 10:05:30;;;;;;;82.95;74.53;;;22.10;99.90;;;;;;7365169;19;20069;-67
2023/09/02 10:08:02;;;;;;;95.90;86.07;;;22.20;99.90;;;;;;7367927;19;20086;-68
2023/09/02 10:10:29;;;;;;;;;;;22.40;99.90;;;;;;7367737;19;20030;-71
2023/09/02 10:13:17;;;;;;;20.35;15.75;;;22.90;99.90;;;;;;7367332;19;19926;-69
2023/09/02 10:15:44;;;;;;;19.35;15.60;;;23.90;99.90;;;;;;7368368;19;20018;-69
2023/09/02 10:18:10;;;;;;;24.40;19.05;;;24.80;99.90;;;;;;7370161;19;20485;-69
2023/09/02 10:20:38;;;;;;;16.67;12.07;;;25.20;99.90;;;;;;7370359;19;20018;-69
2023/09/02 10:23:09;;;;;;;31.90;28.75;;;25.20;99.90;;;;;;7365157;19;20014;-69
2023/09/02 10:25:41;;;;;;;;;;;26.00;99.90;;;;;;7367383;19;21115;-70
2023/09/02 10:28:13;;;;;;;15.85;11.90;;;26.30;99.90;;;;;;7368902;19;19946;-70
2023/09/02 10:30:49;;;;;;;16.67;14.00;;;26.70;99.90;;;;;;7370505;19;20021;-75
2023/09/02 10:33:31;;;;;;;19.65;15.18;;;27.20;99.90;;;;;;7374379;19;20057;-73
2023/09/02 10:36:03;;;;;;;18.00;13.88;;;27.50;99.50;;;;;;7367644;19;20801;-69
2023/09/02 10:38:41;;;;;;;15.23;11.80;;;28.00;98.30;;;;;;7367962;19;20769;-70
2023/09/02 10:41:18;;;;;;;20.70;16.77;;;28.10;95.00;;;;;;7368342;19;20025;-69
2023/09/02 10:44:05;;;;;;;56.30;50.63;;;28.40;92.80;;;;;;7367094;19;20031;-69
2023/09/02 10:46:32;;;;;;;15.57;11.85;;;28.60;93.50;;;;;;7368100;19;20011;-70
2023/09/02 10:49:02;;;;;;;27.45;24.55;;;28.70;92.70;;;;;;7365608;19;20025;-69
2023/09/02 10:51:49;;;;;;;37.38;33.53;;;29.00;91.90;;;;;;7364051;19;20061;-66
2023/09/02 10:55:03;;;;;;;17.73;15.80;;;29.10;90.30;;;;;;7361430;19;20015;-69
2023/09/02 10:57:31;;;;;;;14.07;10.73;;;28.80;83.80;;;;;;7367938;19;20490;-69
2023/09/02 11:00:24;;;;;;;15.82;14.20;;;28.30;87.60;;;;;;7369683;19;20019;-68
2023/09/02 11:02:53;;;;;;;17.67;15.07;;;27.50;86.20;;;;;;7366414;19;20046;-69
2023/09/02 11:05:21;;;;;;;14.07;11.27;;;26.40;90.30;;;;;;7371986;19;20060;-69
2023/09/02 11:07:49;;;;;;;16.95;13.65;;;26.60;91.60;;;;;;7373517;19;20382;-69
2023/09/02 11:10:17;;;;;;;17.02;12.05;;;26.30;92.10;;;;;;7372751;19;20026;-68
2023/09/02 11:13:04;;;;;;;15.98;11.70;;;26.70;92.10;;;;;;7375717;19;20019;-69
2023/09/02 11:15:34;;;;;;;17.65;12.57;;;27.40;90.90;;;;;;7373992;19;20022;-69
2023/09/02 11:18:27;;;;;;;15.05;11.85;;;28.20;91.00;;;;;;7376310;19;20019;-70
2023/09/02 11:20:53;;;;;;;17.88;14.90;;;28.80;89.70;;;;;;7374699;19;20033;-68
2023/09/02 11:23:23;;;;;;;16.20;10.63;;;29.40;88.60;;;;;;7373760;19;20372;-69
2023/09/02 11:26:01;;;;;;;13.30;10.38;;;29.20;83.90;;;;;;7369998;19;20505;-68
2023/09/02 11:28:28;;;;;;;14.45;11.35;;;29.10;80.90;;;;;;7368283;19;20025;-69
2023/09/02 11:31:05;;;;;;;21.05;18.25;;;28.40;82.80;;;;;;7373947;19;20123;-72
2023/09/02 11:33:35;;;;;;;15.73;13.90;;;27.80;80.90;;;;;;7373781;19;20031;-68
2023/09/02 11:36:12;;;;;;;16.47;12.40;;;26.80;88.30;;;;;;7370696;19;20037;-73
2023/09/02 11:38:58;;;;;;;13.90;11.73;;;26.30;90.90;;;;;;7371140;19;20703;-73
2023/09/02 11:41:48;;;;;;;16.83;13.20;;;25.50;93.60;;;;;;7374112;19;20540;-73
2023/09/02 11:44:14;;;;;;;15.27;12.88;;;25.10;97.00;;;;;;7373354;19;20033;-74
2023/09/02 11:46:40;;;;;;;25.83;23.27;;;24.80;99.20;;;;;;7370162;19;20011;-74
2023/09/02 11:49:20;;;;;;;15.15;12.57;;;24.50;99.90;;;;;;7370396;19;20077;-75
2023/09/02 11:51:46;;;;;;;26.50;23.65;;;25.30;99.90;;;;;;7375134;19;20596;-74
2023/09/02 11:54:12;;;;;;;64.72;58.47;;;26.30;99.90;;;;;;7377551;19;20077;-75
2023/09/02 11:56:38;;;;;;;29.30;26.25;;;27.10;98.10;;;;;;7370373;19;20375;-75
2023/09/02 11:59:05;;;;;;;32.20;27.25;;;27.90;96.10;;;;;;7374867;19;20021;-68
2023/09/02 12:01:32;;;;;;;21.52;19.38;;;28.20;93.60;;;;;;7372276;19;20086;-68
2023/09/02 12:03:58;;;;;;;49.20;44.38;;;28.80;91.40;;;;;;7370913;19;20490;-68
2023/09/02 12:06:28;;;;;;;36.95;33.30;;;29.30;86.70;;;;;;7368486;19;20019;-67
2023/09/02 12:08:59;;;;;;;33.40;29.92;;;29.70;81.40;;;;;;7368802;19;20029;-68
2023/09/02 12:11:45;;;;;;;33.35;29.95;;;29.60;75.90;;;;;;7368519;19;20029;-68
2023/09/02 12:14:12;;;;;;;13.95;10.50;;;29.70;71.90;;;;;;7373507;19;20039;-68
2023/09/02 12:16:38;;;;;;;22.77;20.65;;;29.90;72.40;;;;;;7368654;19;20113;-67
2023/09/02 12:19:04;;;;;;;19.67;17.67;;;30.40;70.90;;;;;;7372937;19;20494;-67
2023/09/02 12:21:34;;;;;;;12.73;9.65;;;30.40;70.30;;;;;;7363284;19;20492;-67
2023/09/02 12:24:21;;;;;;;11.95;9.35;;;30.70;68.80;;;;;;7370109;19;20014;-67
2023/09/02 12:26:48;;;;;;;10.27;8.70;;;30.90;68.80;;;;;;7367237;19;20629;-68
2023/09/02 12:29:19;;;;;;;20.30;17.48;;;31.30;67.70;;;;;;7371135;19;20705;-67
2023/09/02 12:31:59;;;;;;;8.77;6.93;;;30.90;66.20;;;;;;7370334;19;20085;-67
2023/09/02 12:34:45;;;;;;;10.52;8.38;;;29.90;62.00;;;;;;7363350;19;20375;-67
2023/09/02 12:37:22;;;;;;;11.63;7.25;;;29.10;67.20;;;;;;7371132;19;20022;-65
2023/09/02 12:39:49;;;;;;;12.43;8.60;;;29.20;68.10;;;;;;7367490;19;20024;-61
2023/09/02 12:42:17;;;;;;;8.10;5.55;;;29.40;68.30;;;;;;7371714;19;20056;-61